sensor_id;sensor_type;location;lat;lon;timestamp;temperature;humidity
16513;DHT22;8369;48.030;11.598;2024-01-15T00:00:48;-0.90;99.90
16513;DHT22;8369;48.030;11.598;2024-01-15T00:03:14;-0.90;99.90
16513;DHT22;8369;48.030;11.598;2024-01-15T00:05:43;-0.70;99.90
16513;DHT22;8369;48.030;11.598;2024-01-15T00:08:09;-0.70;99.90
16513;DHT22;8369;48.030;11.598;2024-01-15T00:10:35;-0.60;99.90
16513;DHT22;8369;48.030;11.598;2024-01-15T00:13:04;-0.60;99.90
16513;DHT22;8369;48.030;11.598;2024-01-15T00:15:30;-0.60;99.90
16513;DHT22;8369;48.030;11.598;2024-01-15T00:17:56;-0.60;99.90
16513;DHT22;8369;48.030;11.598;2024-01-15T00:20:21;-0.60;99.90
16513;DHT22;8369;48.030;11.598;2024-01-15T00:22:47;-0.50;99.90
16513;DHT22;8369;48.030;11.598;2024-01-15T00:25:13;-0.40;99.90
16513;DHT22;8369;48.030;11.598;2024-01-15T00:27:39;-0.40;99.90
16513;DHT22;8369;48.030;11.598;2024-01-15T00:30:05;-0.40;99.90
16513;DHT22;8369;48.030;11.598;2024-01-15T00:32:33;-0.40;99.90
16513;DHT22;8369;48.030;11.598;2024-01-15T00:34:59;-0.30;99.90
16513;DHT22;8369;48.030;11.598;2024-01-15T00:37:25;-0.30;99.90
16513;DHT22;8369;48.030;11.598;2024-01-15T00:39:51;-0.30;99.90
16513;DHT22;8369;48.030;11.598;2024-01-15T00:42:16;-0.40;99.90
16513;DHT22;8369;48.030;11.598;2024-01-15T00:44:42;-0.30;99.90
16513;DHT22;8369;48.030;11.598;2024-01-15T00:47:10;-0.30;99.90
16513;DHT22;8369;48.030;11.598;2024-01-15T00:49:37;-0.30;99.90
16513;DHT22;8369;48.030;11.598;2024-01-15T00:52:03;-0.30;99.90
16513;DHT22;8369;48.030;11.598;2024-01-15T00:54:31;-0.30;99.90
16513;DHT22;8369;48.030;11.598;2024-01-15T00:56:57;-0.30;99.90
16513;DHT22;8369;48.030;11.598;2024-01-15T00:59:22;-0.30;99.90
16513;DHT22;8369;48.030;11.598;2024-01-15T01:01:51;-0.40;99.90
16513;DHT22;8369;48.030;11.598;2024-01-15T01:04:16;-0.40;99.90
16513;DHT22;8369;48.030;11.598;2024-01-15T01:06:42;-0.40;99.90
16513;DHT22;8369;48.030;11.598;2024-01-15T01:09:08;-0.40;99.90
16513;DHT22;8369;48.030;11.598;2024-01-15T01:11:34;-0.50;99.90
16513;DHT22;8369;48.030;11.598;2024-01-15T01:14:02;-0.50;99.90
16513;DHT22;8369;48.030;11.598;2024-01-15T01:16:28;-0.50;99.90
16513;DHT22;8369;48.030;11.598;2024-01-15T01:18:54;-0.50;99.90
16513;DHT22;8369;48.030;11.598;2024-01-15T01:21:19;-0.50;99.90
16513;DHT22;8369;48.030;11.598;2024-01-15T01:23:45;-0.50;99.90
16513;DHT22;8369;48.030;11.598;2024-01-15T01:26:14;-0.60;99.90
16513;DHT22;8369;48.030;11.598;2024-01-15T01:28:40;-0.50;99.90
16513;DHT22;8369;48.030;11.598;2024-01-15T01:31:06;-0.60;99.90
16513;DHT22;8369;48.030;11.598;2024-01-15T01:33:31;-0.60;99.90
16513;DHT22;8369;48.030;11.598;2024-01-15T01:35:57;-0.70;99.90
16513;DHT22;8369;48.030;11.598;2024-01-15T01:38:23;-0.60;99.90
16513;DHT22;8369;48.030;11.598;2024-01-15T01:40:48;-0.70;99.90
16513;DHT22;8369;48.030;11.598;2024-01-15T01:43:20;-0.70;99.90
16513;DHT22;8369;48.030;11.598;2024-01-15T01:45:46;-0.80;99.90
16513;DHT22;8369;48.030;11.598;2024-01-15T01:48:11;-0.90;99.90
16513;DHT22;8369;48.030;11.598;2024-01-15T01:50:37;-0.80;99.90
16513;DHT22;8369;48.030;11.598;2024-01-15T01:53:04;-0.90;99.90
16513;DHT22;8369;48.030;11.598;2024-01-15T01:55:30;-0.90;99.90
16513;DHT22;8369;48.030;11.598;2024-01-15T01:57:59;-0.90;99.90
16513;DHT22;8369;48.030;11.598;2024-01-15T02:00:25;-0.90;99.90
16513;DHT22;8369;48.030;11.598;2024-01-15T02:02:54;-1.00;99.90
16513;DHT22;8369;48.030;11.598;2024-01-15T02:05:20;-1.10;99.90
16513;DHT22;8369;48.030;11.598;2024-01-15T02:07:47;-1.10;99.90
16513;DHT22;8369;48.030;11.598;2024-01-15T02:10:14;-1.20;99.90
16513;DHT22;8369;48.030;11.598;2024-01-15T02:12:40;-1.20;99.90
16513;DHT22;8369;48.030;11.598;2024-01-15T02:15:05;-1.30;99.90
16513;DHT22;8369;48.030;11.598;2024-01-15T02:17:31;-1.30;99.90
16513;DHT22;8369;48.030;11.598;2024-01-15T02:19:57;-1.40;99.90
16513;DHT22;8369;48.030;11.598;2024-01-15T02:22:25;-1.40;99.90
16513;DHT22;8369;48.030;11.598;2024-01-15T02:24:51;-1.40;99.90
16513;DHT22;8369;48.030;11.598;2024-01-15T02:27:17;-1.40;99.90
16513;DHT22;8369;48.030;11.598;2024-01-15T02:29:43;-1.40;99.90
16513;DHT22;8369;48.030;11.598;2024-01-15T02:32:09;-1.40;99.90
16513;DHT22;8369;48.030;11.598;2024-01-15T02:34:34;-1.40;99.90
16513;DHT22;8369;48.030;11.598;2024-01-15T02:37:00;-1.50;99.90
16513;DHT22;8369;48.030;11.598;2024-01-15T02:39:26;-1.40;99.90
16513;DHT22;8369;48.030;11.598;2024-01-15T02:41:52;-1.40;99.90
16513;DHT22;8369;48.030;11.598;2024-01-15T02:44:20;-1.50;99.90
16513;DHT22;8369;48.030;11.598;2024-01-15T02:46:46;-1.50;99.90
16513;DHT22;8369;48.030;11.598;2024-01-15T02:49:11;-1.50;99.90
16513;DHT22;8369;48.030;11.598;2024-01-15T02:51:37;-1.50;99.90
16513;DHT22;8369;48.030;11.598;2024-01-15T02:54:03;-1.50;99.90
16513;DHT22;8369;48.030;11.598;2024-01-15T02:56:29;-1.50;99.90
16513;DHT22;8369;48.030;11.598;2024-01-15T02:58:54;-1.50;99.90
16513;DHT22;8369;48.030;11.598;2024-01-15T03:01:20;-1.50;99.90
16513;DHT22;8369;48.030;11.598;2024-01-15T03:03:46;-1.50;99.90
16513;DHT22;8369;48.030;11.598;2024-01-15T03:06:12;-1.50;99.90
16513;DHT22;8369;48.030;11.598;2024-01-15T03:08:37;-1.60;99.90
16513;DHT22;8369;48.030;11.598;2024-01-15T03:11:03;-1.50;99.90
16513;DHT22;8369;48.030;11.598;2024-01-15T03:13:31;-1.60;99.90
16513;DHT22;8369;48.030;11.598;2024-01-15T03:16:01;-1.50;99.90
16513;DHT22;8369;48.030;11.598;2024-01-15T03:18:27;-1.60;99.90
16513;DHT22;8369;48.030;11.598;2024-01-15T03:20:55;-1.50;99.90
16513;DHT22;8369;48.030;11.598;2024-01-15T03:23:21;-1.50;99.90
16513;DHT22;8369;48.030;11.598;2024-01-15T03:25:47;-1.50;99.90
16513;DHT22;8369;48.030;11.598;2024-01-15T03:28:12;-1.50;99.90
16513;DHT22;8369;48.030;11.598;2024-01-15T03:30:38;-1.50;99.90
16513;DHT22;8369;48.030;11.598;2024-01-15T03:33:06;-1.50;99.90
16513;DHT22;8369;48.030;11.598;2024-01-15T03:35:32;-1.50;99.90
16513;DHT22;8369;48.030;11.598;2024-01-15T03:37:57;-1.50;99.90
16513;DHT22;8369;48.030;11.598;2024-01-15T03:40:23;-1.50;99.90
16513;DHT22;8369;48.030;11.598;2024-01-15T03:42:49;-1.60;99.90
16513;DHT22;8369;48.030;11.598;2024-01-15T03:45:15;-1.50;99.90
16513;DHT22;8369;48.030;11.598;2024-01-15T03:47:40;-1.50;99.90
16513;DHT22;8369;48.030;11.598;2024-01-15T03:50:07;-1.50;99.90
16513;DHT22;8369;48.030;11.598;2024-01-15T03:52:32;-1.50;99.90
16513;DHT22;8369;48.030;11.598;2024-01-15T03:54:59;-1.50;99.90
16513;DHT22;8369;48.030;11.598;2024-01-15T03:57:24;-1.50;99.90
16513;DHT22;8369;48.030;11.598;2024-01-15T03:59:53;-1.50;99.90
16513;DHT22;8369;48.030;11.598;2024-01-15T04:02:19;-1.50;99.90
16513;DHT22;8369;48.030;11.598;2024-01-15T04:04:48;-1.50;99.90
16513;DHT22;8369;48.030;11.598;2024-01-15T04:07:16;-1.50;99.90
16513;DHT22;8369;48.030;11.598;2024-01-15T04:09:42;-1.50;99.90
16513;DHT22;8369;48.030;11.598;2024-01-15T04:12:08;-1.50;99.90
16513;DHT22;8369;48.030;11.598;2024-01-15T04:14:33;-1.60;99.90
16513;DHT22;8369;48.030;11.598;2024-01-15T04:16:59;-1.50;99.90
16513;DHT22;8369;48.030;11.598;2024-01-15T04:19:25;-1.50;99.90
16513;DHT22;8369;48.030;11.598;2024-01-15T04:21:53;-1.50;99.90
16513;DHT22;8369;48.030;11.598;2024-01-15T04:24:19;-1.40;99.90
16513;DHT22;8369;48.030;11.598;2024-01-15T04:26:47;-1.40;99.90
16513;DHT22;8369;48.030;11.598;2024-01-15T04:29:13;-1.50;99.90
16513;DHT22;8369;48.030;11.598;2024-01-15T04:31:38;-1.40;99.90
16513;DHT22;8369;48.030;11.598;2024-01-15T04:34:04;-1.50;99.90
16513;DHT22;8369;48.030;11.598;2024-01-15T04:36:30;-1.50;99.90
16513;DHT22;8369;48.030;11.598;2024-01-15T04:38:57;-1.50;99.90
16513;DHT22;8369;48.030;11.598;2024-01-15T04:41:22;-1.50;99.90
16513;DHT22;8369;48.030;11.598;2024-01-15T04:43:48;-1.50;99.90
16513;DHT22;8369;48.030;11.598;2024-01-15T04:46:15;-1.50;99.90
16513;DHT22;8369;48.030;11.598;2024-01-15T04:48:41;-1.50;99.90
16513;DHT22;8369;48.030;11.598;2024-01-15T04:51:09;-1.50;99.90
16513;DHT22;8369;48.030;11.598;2024-01-15T04:53:35;-1.50;99.90
16513;DHT22;8369;48.030;11.598;2024-01-15T04:56:01;-1.60;99.90
16513;DHT22;8369;48.030;11.598;2024-01-15T04:58:27;-1.50;99.90
16513;DHT22;8369;48.030;11.598;2024-01-15T05:00:52;-1.50;99.90
16513;DHT22;8369;48.030;11.598;2024-01-15T05:03:19;-1.50;99.90
16513;DHT22;8369;48.030;11.598;2024-01-15T05:05:45;-1.50;99.90
16513;DHT22;8369;48.030;11.598;2024-01-15T05:08:11;-1.50;99.90
16513;DHT22;8369;48.030;11.598;2024-01-15T05:10:37;-1.50;99.90
16513;DHT22;8369;48.030;11.598;2024-01-15T05:13:12;-1.60;99.90
16513;DHT22;8369;48.030;11.598;2024-01-15T05:15:37;-1.50;99.90
16513;DHT22;8369;48.030;11.598;2024-01-15T05:18:05;-1.50;99.90
16513;DHT22;8369;48.030;11.598;2024-01-15T05:20:31;-1.50;99.90
16513;DHT22;8369;48.030;11.598;2024-01-15T05:22:57;-1.40;99.90
16513;DHT22;8369;48.030;11.598;2024-01-15T05:25:23;-1.40;99.90
16513;DHT22;8369;48.030;11.598;2024-01-15T05:27:49;-1.50;99.90
16513;DHT22;8369;48.030;11.598;2024-01-15T05:30:14;-1.40;99.90
16513;DHT22;8369;48.030;11.598;2024-01-15T05:32:40;-1.40;99.90
16513;DHT22;8369;48.030;11.598;2024-01-15T05:35:09;-1.50;99.90
16513;DHT22;8369;48.030;11.598;2024-01-15T05:37:37;-1.40;99.90
16513;DHT22;8369;48.030;11.598;2024-01-15T05:40:04;-1.50;99.90
16513;DHT22;8369;48.030;11.598;2024-01-15T05:42:30;-1.50;99.90
16513;DHT22;8369;48.030;11.598;2024-01-15T05:44:59;-1.50;99.90
16513;DHT22;8369;48.030;11.598;2024-01-15T05:47:25;-1.40;99.90
16513;DHT22;8369;48.030;11.598;2024-01-15T05:49:51;-1.40;99.90
16513;DHT22;8369;48.030;11.598;2024-01-15T05:52:16;-1.50;99.90
16513;DHT22;8369;48.030;11.598;2024-01-15T05:54:42;-1.50;99.90
16513;DHT22;8369;48.030;11.598;2024-01-15T05:57:11;-1.50;99.90
16513;DHT22;8369;48.030;11.598;2024-01-15T05:59:37;-1.50;99.90
16513;DHT22;8369;48.030;11.598;2024-01-15T06:02:02;-1.50;99.90
16513;DHT22;8369;48.030;11.598;2024-01-15T06:04:28;-1.50;99.90
16513;DHT22;8369;48.030;11.598;2024-01-15T06:06:54;-1.50;99.90
16513;DHT22;8369;48.030;11.598;2024-01-15T06:09:20;-1.50;99.90
16513;DHT22;8369;48.030;11.598;2024-01-15T06:11:46;-1.50;99.90
16513;DHT22;8369;48.030;11.598;2024-01-15T06:14:12;-1.50;99.90
16513;DHT22;8369;48.030;11.598;2024-01-15T06:16:37;-1.50;99.90
16513;DHT22;8369;48.030;11.598;2024-01-15T06:19:03;-1.60;99.90
16513;DHT22;8369;48.030;11.598;2024-01-15T06:21:32;-1.60;99.90
16513;DHT22;8369;48.030;11.598;2024-01-15T06:23:58;-1.60;99.90
16513;DHT22;8369;48.030;11.598;2024-01-15T06:26:24;-1.60;99.90
16513;DHT22;8369;48.030;11.598;2024-01-15T06:28:50;-1.60;99.90
16513;DHT22;8369;48.030;11.598;2024-01-15T06:31:16;-1.60;99.90
16513;DHT22;8369;48.030;11.598;2024-01-15T06:33:42;-1.60;99.90
16513;DHT22;8369;48.030;11.598;2024-01-15T06:36:08;-1.60;99.90
16513;DHT22;8369;48.030;11.598;2024-01-15T06:38:34;-1.60;99.90
16513;DHT22;8369;48.030;11.598;2024-01-15T06:41:00;-1.60;99.90
16513;DHT22;8369;48.030;11.598;2024-01-15T06:43:26;-1.50;99.90
16513;DHT22;8369;48.030;11.598;2024-01-15T06:45:52;-1.60;99.90
16513;DHT22;8369;48.030;11.598;2024-01-15T06:48:18;-1.50;99.90
16513;DHT22;8369;48.030;11.598;2024-01-15T06:50:45;-1.50;99.90
16513;DHT22;8369;48.030;11.598;2024-01-15T06:53:11;-1.60;99.90
16513;DHT22;8369;48.030;11.598;2024-01-15T06:55:38;-1.50;99.90
16513;DHT22;8369;48.030;11.598;2024-01-15T06:58:04;-1.50;99.90
16513;DHT22;8369;48.030;11.598;2024-01-15T07:00:30;-1.50;99.90
16513;DHT22;8369;48.030;11.598;2024-01-15T07:02:57;-1.50;99.90
16513;DHT22;8369;48.030;11.598;2024-01-15T07:05:25;-1.50;99.90
16513;DHT22;8369;48.030;11.598;2024-01-15T07:07:51;-1.50;99.90
16513;DHT22;8369;48.030;11.598;2024-01-15T07:10:17;-1.50;99.90
16513;DHT22;8369;48.030;11.598;2024-01-15T07:12:43;-1.50;99.90
16513;DHT22;8369;48.030;11.598;2024-01-15T07:15:09;-1.40;99.90
16513;DHT22;8369;48.030;11.598;2024-01-15T07:17:36;-1.40;99.90
16513;DHT22;8369;48.030;11.598;2024-01-15T07:20:11;-1.50;99.90
16513;DHT22;8369;48.030;11.598;2024-01-15T07:22:37;-1.50;99.90
16513;DHT22;8369;48.030;11.598;2024-01-15T07:25:06;-1.50;99.90
16513;DHT22;8369;48.030;11.598;2024-01-15T07:27:32;-1.50;99.90
16513;DHT22;8369;48.030;11.598;2024-01-15T07:29:58;-1.40;99.90
16513;DHT22;8369;48.030;11.598;2024-01-15T07:32:24;-1.40;99.90
16513;DHT22;8369;48.030;11.598;2024-01-15T07:34:50;-1.40;99.90
16513;DHT22;8369;48.030;11.598;2024-01-15T07:37:16;-1.40;99.90
16513;DHT22;8369;48.030;11.598;2024-01-15T07:39:43;-1.40;99.90
16513;DHT22;8369;48.030;11.598;2024-01-15T07:42:09;-1.40;99.90
16513;DHT22;8369;48.030;11.598;2024-01-15T07:44:35;-1.40;99.90
16513;DHT22;8369;48.030;11.598;2024-01-15T07:47:05;-1.40;99.90
16513;DHT22;8369;48.030;11.598;2024-01-15T07:49:32;-1.40;99.90
16513;DHT22;8369;48.030;11.598;2024-01-15T07:51:58;-1.30;99.90
16513;DHT22;8369;48.030;11.598;2024-01-15T07:54:26;-1.30;99.90
16513;DHT22;8369;48.030;11.598;2024-01-15T07:57:00;-1.20;99.90
16513;DHT22;8369;48.030;11.598;2024-01-15T07:59:27;-1.20;99.90
16513;DHT22;8369;48.030;11.598;2024-01-15T08:01:53;-1.20;99.90
16513;DHT22;8369;48.030;11.598;2024-01-15T08:04:20;-1.10;99.90
16513;DHT22;8369;48.030;11.598;2024-01-15T08:06:47;-1.10;99.90
16513;DHT22;8369;48.030;11.598;2024-01-15T08:09:14;-1.10;99.90
16513;DHT22;8369;48.030;11.598;2024-01-15T08:11:41;-1.10;99.90
16513;DHT22;8369;48.030;11.598;2024-01-15T08:14:08;-1.10;99.90
16513;DHT22;8369;48.030;11.598;2024-01-15T08:16:35;-1.10;99.90
16513;DHT22;8369;48.030;11.598;2024-01-15T08:19:02;-1.10;99.90
16513;DHT22;8369;48.030;11.598;2024-01-15T08:21:28;-1.10;99.90
16513;DHT22;8369;48.030;11.598;2024-01-15T08:23:59;-1.10;99.90
16513;DHT22;8369;48.030;11.598;2024-01-15T08:26:25;-1.10;99.90
16513;DHT22;8369;48.030;11.598;2024-01-15T08:28:51;-1.00;99.90
16513;DHT22;8369;48.030;11.598;2024-01-15T08:31:18;-1.00;99.90
16513;DHT22;8369;48.030;11.598;2024-01-15T08:33:44;-1.00;99.90
16513;DHT22;8369;48.030;11.598;2024-01-15T08:36:10;-1.10;99.90
16513;DHT22;8369;48.030;11.598;2024-01-15T08:38:38;-1.10;99.90
16513;DHT22;8369;48.030;11.598;2024-01-15T08:41:05;-1.10;99.90
16513;DHT22;8369;48.030;11.598;2024-01-15T08:43:31;-1.10;99.90
16513;DHT22;8369;48.030;11.598;2024-01-15T08:45:57;-1.10;99.90
16513;DHT22;8369;48.030;11.598;2024-01-15T08:48:24;-1.00;99.90
16513;DHT22;8369;48.030;11.598;2024-01-15T08:50:53;-1.00;99.90
16513;DHT22;8369;48.030;11.598;2024-01-15T08:53:20;-0.90;99.90
16513;DHT22;8369;48.030;11.598;2024-01-15T08:55:48;-1.00;99.90
16513;DHT22;8369;48.030;11.598;2024-01-15T08:58:15;-1.00;99.90
16513;DHT22;8369;48.030;11.598;2024-01-15T09:00:41;-1.00;99.90
16513;DHT22;8369;48.030;11.598;2024-01-15T09:03:07;-1.00;99.90
16513;DHT22;8369;48.030;11.598;2024-01-15T09:05:34;-1.00;99.90
16513;DHT22;8369;48.030;11.598;2024-01-15T09:08:00;-1.10;99.90
16513;DHT22;8369;48.030;11.598;2024-01-15T09:10:29;-1.10;99.90
16513;DHT22;8369;48.030;11.598;2024-01-15T09:12:56;-1.10;99.90
16513;DHT22;8369;48.030;11.598;2024-01-15T09:15:22;-1.10;99.90
16513;DHT22;8369;48.030;11.598;2024-01-15T09:17:48;-1.00;99.90
16513;DHT22;8369;48.030;11.598;2024-01-15T09:20:15;-1.00;99.90
16513;DHT22;8369;48.030;11.598;2024-01-15T09:22:41;-1.00;99.90
16513;DHT22;8369;48.030;11.598;2024-01-15T09:25:09;-1.00;99.90
16513;DHT22;8369;48.030;11.598;2024-01-15T09:27:35;-0.90;99.90
16513;DHT22;8369;48.030;11.598;2024-01-15T09:30:02;-0.90;99.90
16513;DHT22;8369;48.030;11.598;2024-01-15T09:32:28;-0.80;99.90
16513;DHT22;8369;48.030;11.598;2024-01-15T09:34:54;-0.90;99.90
16513;DHT22;8369;48.030;11.598;2024-01-15T09:37:21;-0.90;99.90
16513;DHT22;8369;48.030;11.598;2024-01-15T09:39:47;-0.80;99.90
16513;DHT22;8369;48.030;11.598;2024-01-15T09:42:14;-0.80;99.90
16513;DHT22;8369;48.030;11.598;2024-01-15T09:44:40;-0.70;99.90
16513;DHT22;8369;48.030;11.598;2024-01-15T09:47:07;-0.70;99.90
16513;DHT22;8369;48.030;11.598;2024-01-15T09:49:34;-0.70;99.90
16513;DHT22;8369;48.030;11.598;2024-01-15T09:52:02;-0.70;99.90
16513;DHT22;8369;48.030;11.598;2024-01-15T09:54:29;-0.70;99.90
16513;DHT22;8369;48.030;11.598;2024-01-15T09:56:55;-0.70;99.90
16513;DHT22;8369;48.030;11.598;2024-01-15T09:59:22;-0.70;99.90
16513;DHT22;8369;48.030;11.598;2024-01-15T10:01:50;-0.60;99.90
16513;DHT22;8369;48.030;11.598;2024-01-15T10:04:16;-0.60;99.90
16513;DHT22;8369;48.030;11.598;2024-01-15T10:06:45;-0.60;99.90
16513;DHT22;8369;48.030;11.598;2024-01-15T10:09:14;-0.60;99.90
16513;DHT22;8369;48.030;11.598;2024-01-15T10:11:44;-0.60;99.90
16513;DHT22;8369;48.030;11.598;2024-01-15T10:14:11;-0.50;99.90
16513;DHT22;8369;48.030;11.598;2024-01-15T10:16:42;-0.40;99.90
16513;DHT22;8369;48.030;11.598;2024-01-15T10:19:08;-0.30;99.90
16513;DHT22;8369;48.030;11.598;2024-01-15T10:21:35;-0.40;99.90
16513;DHT22;8369;48.030;11.598;2024-01-15T10:24:02;-0.50;99.90
16513;DHT22;8369;48.030;11.598;2024-01-15T10:26:28;-0.40;99.90
16513;DHT22;8369;48.030;11.598;2024-01-15T10:29:00;-0.40;99.90
16513;DHT22;8369;48.030;11.598;2024-01-15T10:31:30;-0.40;99.90
16513;DHT22;8369;48.030;11.598;2024-01-15T10:34:16;-0.30;99.90
16513;DHT22;8369;48.030;11.598;2024-01-15T10:36:45;-0.30;99.90
16513;DHT22;8369;48.030;11.598;2024-01-15T10:39:16;-0.20;99.90
16513;DHT22;8369;48.030;11.598;2024-01-15T10:41:49;-0.30;99.90
16513;DHT22;8369;48.030;11.598;2024-01-15T10:44:23;-0.30;99.90
16513;DHT22;8369;48.030;11.598;2024-01-15T10:47:09;-0.30;99.90
16513;DHT22;8369;48.030;11.598;2024-01-15T10:49:35;-0.30;99.90
16513;DHT22;8369;48.030;11.598;2024-01-15T10:52:02;-0.30;99.90
16513;DHT22;8369;48.030;11.598;2024-01-15T10:54:30;-0.30;99.90
16513;DHT22;8369;48.030;11.598;2024-01-15T10:56:57;-0.20;99.90
16513;DHT22;8369;48.030;11.598;2024-01-15T10:59:24;-0.20;99.90
16513;DHT22;8369;48.030;11.598;2024-01-15T11:01:53;-0.20;99.90
16513;DHT22;8369;48.030;11.598;2024-01-15T11:04:23;-0.20;99.90
16513;DHT22;8369;48.030;11.598;2024-01-15T11:06:53;-0.20;99.90
16513;DHT22;8369;48.030;11.598;2024-01-15T11:09:25;-0.20;99.90
16513;DHT22;8369;48.030;11.598;2024-01-15T11:12:06;-0.20;99.90
16513;DHT22;8369;48.030;11.598;2024-01-15T11:15:03;-0.20;99.90
16513;DHT22;8369;48.030;11.598;2024-01-15T11:18:01;-0.10;99.90
16513;DHT22;8369;48.030;11.598;2024-01-15T11:20:29;-0.10;99.90
16513;DHT22;8369;48.030;11.598;2024-01-15T11:22:59;-0.10;99.90
16513;DHT22;8369;48.030;11.598;2024-01-15T11:25:34;-0.10;99.90
16513;DHT22;8369;48.030;11.598;2024-01-15T11:28:07;0.00;99.90
16513;DHT22;8369;48.030;11.598;2024-01-15T11:30:40;0.10;99.90
16513;DHT22;8369;48.030;11.598;2024-01-15T11:33:05;0.20;99.90
16513;DHT22;8369;48.030;11.598;2024-01-15T11:35:55;0.20;99.90
16513;DHT22;8369;48.030;11.598;2024-01-15T11:38:27;0.10;99.90
16513;DHT22;8369;48.030;11.598;2024-01-15T11:40:54;0.10;99.90
16513;DHT22;8369;48.030;11.598;2024-01-15T11:43:33;0.20;99.90
16513;DHT22;8369;48.030;11.598;2024-01-15T11:46:02;0.20;99.90
16513;DHT22;8369;48.030;11.598;2024-01-15T11:48:44;0.20;99.90
16513;DHT22;8369;48.030;11.598;2024-01-15T11:51:18;0.20;99.90
16513;DHT22;8369;48.030;11.598;2024-01-15T11:53:47;0.20;99.90
16513;DHT22;8369;48.030;11.598;2024-01-15T11:56:16;0.20;99.90
16513;DHT22;8369;48.030;11.598;2024-01-15T11:58:47;0.20;99.90
16513;DHT22;8369;48.030;11.598;2024-01-15T12:01:16;0.30;99.90
16513;DHT22;8369;48.030;11.598;2024-01-15T12:03:49;0.20;99.90
16513;DHT22;8369;48.030;11.598;2024-01-15T12:06:18;0.30;99.90
16513;DHT22;8369;48.030;11.598;2024-01-15T12:09:06;0.30;99.90
16513;DHT22;8369;48.030;11.598;2024-01-15T12:11:36;0.30;99.90
16513;DHT22;8369;48.030;11.598;2024-01-15T12:14:21;0.30;99.90
16513;DHT22;8369;48.030;11.598;2024-01-15T12:17:30;0.40;99.90
16513;DHT22;8369;48.030;11.598;2024-01-15T12:19:56;0.40;99.90
16513;DHT22;8369;48.030;11.598;2024-01-15T12:22:22;0.40;99.90
16513;DHT22;8369;48.030;11.598;2024-01-15T12:24:56;0.40;99.90
16513;DHT22;8369;48.030;11.598;2024-01-15T12:27:28;0.50;99.90
16513;DHT22;8369;48.030;11.598;2024-01-15T12:29:54;0.50;99.90
16513;DHT22;8369;48.030;11.598;2024-01-15T12:32:24;0.40;99.90
16513;DHT22;8369;48.030;11.598;2024-01-15T12:34:53;0.50;99.90
16513;DHT22;8369;48.030;11.598;2024-01-15T12:37:29;0.40;99.90
16513;DHT22;8369;48.030;11.598;2024-01-15T12:39:55;0.40;99.90
16513;DHT22;8369;48.030;11.598;2024-01-15T12:42:30;0.40;99.90
16513;DHT22;8369;48.030;11.598;2024-01-15T12:44:57;0.40;99.90
16513;DHT22;8369;48.030;11.598;2024-01-15T12:47:32;0.40;99.90
16513;DHT22;8369;48.030;11.598;2024-01-15T12:50:25;0.40;99.90
16513;DHT22;8369;48.030;11.598;2024-01-15T12:52:56;0.40;99.90
16513;DHT22;8369;48.030;11.598;2024-01-15T12:55:36;0.50;99.90
16513;DHT22;8369;48.030;11.598;2024-01-15T12:58:04;0.40;99.90
16513;DHT22;8369;48.030;11.598;2024-01-15T13:00:31;0.40;99.90
16513;DHT22;8369;48.030;11.598;2024-01-15T13:02:57;0.50;99.90
16513;DHT22;8369;48.030;11.598;2024-01-15T13:05:24;0.50;99.90
16513;DHT22;8369;48.030;11.598;2024-01-15T13:07:51;0.50;99.90
16513;DHT22;8369;48.030;11.598;2024-01-15T13:10:17;0.50;99.90
16513;DHT22;8369;48.030;11.598;2024-01-15T13:12:43;0.40;99.90
16513;DHT22;8369;48.030;11.598;2024-01-15T13:15:09;0.40;99.90
16513;DHT22;8369;48.030;11.598;2024-01-15T13:17:38;0.40;99.90
16513;DHT22;8369;48.030;11.598;2024-01-15T13:20:06;0.40;99.90
16513;DHT22;8369;48.030;11.598;2024-01-15T13:22:32;0.40;99.90
16513;DHT22;8369;48.030;11.598;2024-01-15T13:24:58;0.40;99.90
16513;DHT22;8369;48.030;11.598;2024-01-15T13:27:24;0.40;99.90
16513;DHT22;8369;48.030;11.598;2024-01-15T13:29:50;0.40;99.90
16513;DHT22;8369;48.030;11.598;2024-01-15T13:32:25;0.40;99.90
16513;DHT22;8369;48.030;11.598;2024-01-15T13:34:55;0.40;99.90
16513;DHT22;8369;48.030;11.598;2024-01-15T13:37:21;0.50;99.90
16513;DHT22;8369;48.030;11.598;2024-01-15T13:39:47;0.50;99.90
16513;DHT22;8369;48.030;11.598;2024-01-15T13:42:13;0.50;99.90
16513;DHT22;8369;48.030;11.598;2024-01-15T13:44:40;0.60;99.90
16513;DHT22;8369;48.030;11.598;2024-01-15T13:47:06;0.50;99.90
16513;DHT22;8369;48.030;11.598;2024-01-15T13:49:35;0.50;99.90
16513;DHT22;8369;48.030;11.598;2024-01-15T13:52:03;0.60;99.90
16513;DHT22;8369;48.030;11.598;2024-01-15T13:54:31;0.60;99.90
16513;DHT22;8369;48.030;11.598;2024-01-15T13:56:57;0.60;99.90
16513;DHT22;8369;48.030;11.598;2024-01-15T13:59:24;0.60;99.90
16513;DHT22;8369;48.030;11.598;2024-01-15T14:01:50;0.60;99.90
16513;DHT22;8369;48.030;11.598;2024-01-15T14:04:16;0.50;99.90
16513;DHT22;8369;48.030;11.598;2024-01-15T14:06:42;0.50;99.90
16513;DHT22;8369;48.030;11.598;2024-01-15T14:09:08;0.50;99.90
16513;DHT22;8369;48.030;11.598;2024-01-15T14:11:36;0.50;99.90
16513;DHT22;8369;48.030;11.598;2024-01-15T14:14:03;0.50;99.90
16513;DHT22;8369;48.030;11.598;2024-01-15T14:16:29;0.50;99.90
16513;DHT22;8369;48.030;11.598;2024-01-15T14:18:54;0.50;99.90
16513;DHT22;8369;48.030;11.598;2024-01-15T14:21:20;0.50;99.90
16513;DHT22;8369;48.030;11.598;2024-01-15T14:23:50;0.50;99.90
16513;DHT22;8369;48.030;11.598;2024-01-15T14:26:16;0.50;99.90
16513;DHT22;8369;48.030;11.598;2024-01-15T14:28:42;0.40;99.90
16513;DHT22;8369;48.030;11.598;2024-01-15T14:31:10;0.40;99.90
16513;DHT22;8369;48.030;11.598;2024-01-15T14:33:36;0.50;99.90
16513;DHT22;8369;48.030;11.598;2024-01-15T14:36:05;0.50;99.90
16513;DHT22;8369;48.030;11.598;2024-01-15T14:38:31;0.40;99.90
16513;DHT22;8369;48.030;11.598;2024-01-15T14:40:57;0.40;99.90
16513;DHT22;8369;48.030;11.598;2024-01-15T14:43:25;0.40;99.90
16513;DHT22;8369;48.030;11.598;2024-01-15T14:45:51;0.40;99.90
16513;DHT22;8369;48.030;11.598;2024-01-15T14:48:17;0.40;99.90
16513;DHT22;8369;48.030;11.598;2024-01-15T14:50:43;0.30;99.90
16513;DHT22;8369;48.030;11.598;2024-01-15T14:53:09;0.40;99.90
16513;DHT22;8369;48.030;11.598;2024-01-15T14:55:34;0.30;99.90
16513;DHT22;8369;48.030;11.598;2024-01-15T14:58:00;0.20;99.90
16513;DHT22;8369;48.030;11.598;2024-01-15T15:00:27;0.20;99.90
16513;DHT22;8369;48.030;11.598;2024-01-15T15:02:52;0.30;99.90
16513;DHT22;8369;48.030;11.598;2024-01-15T15:05:18;0.40;99.90
16513;DHT22;8369;48.030;11.598;2024-01-15T15:07:44;0.40;99.90
16513;DHT22;8369;48.030;11.598;2024-01-15T15:10:15;0.30;99.90
16513;DHT22;8369;48.030;11.598;2024-01-15T15:12:41;0.20;99.90
16513;DHT22;8369;48.030;11.598;2024-01-15T15:15:07;0.30;99.90
16513;DHT22;8369;48.030;11.598;2024-01-15T15:17:37;0.30;99.90
16513;DHT22;8369;48.030;11.598;2024-01-15T15:20:04;0.20;99.90
16513;DHT22;8369;48.030;11.598;2024-01-15T15:22:30;0.20;99.90
16513;DHT22;8369;48.030;11.598;2024-01-15T15:24:56;0.30;99.90
16513;DHT22;8369;48.030;11.598;2024-01-15T15:27:22;0.30;99.90
16513;DHT22;8369;48.030;11.598;2024-01-15T15:29:49;0.20;99.90
16513;DHT22;8369;48.030;11.598;2024-01-15T15:32:16;0.20;99.90
16513;DHT22;8369;48.030;11.598;2024-01-15T15:34:41;0.20;99.90
16513;DHT22;8369;48.030;11.598;2024-01-15T15:37:07;0.20;99.90